Time,TemperatureF,DewpointF,PressureIn,WindDirection,WindDirectionDegrees,WindSpeedMPH,WindSpeedGustMPH,Humidity,HourlyPrecipIn,Conditions,Clouds,dailyrainin,SolarRadiationWatts/m^2,SoftwareType,DateUTC
2013-08-20 00:02:00,61.5,58.8,30.00,WSW,237,0.0,0.0,91,0.00,,,0.00,0,Wunderground v.1.15,2013-08-20 05:02:00,
2013-08-20 00:07:00,61.4,58.7,30.00,WSW,237,0.0,0.0,91,0.00,,,0.00,0,Wunderground v.1.15,2013-08-20 05:07:00,
2013-08-20 00:13:00,61.3,58.7,30.00,WSW,237,0.0,0.0,91,0.00,,,0.00,0,Wunderground v.1.15,2013-08-20 05:13:00,
2013-08-20 00:18:00,61.3,59.0,30.00,WSW,237,0.0,0.0,92,0.00,,,0.00,0,Wunderground v.1.15,2013-08-20 05:18:00,
2013-08-20 00:23:00,61.3,59.0,30.00,WSW,237,0.0,0.0,92,0.00,,,0.00,0,Wunderground v.1.15,2013-08-20 05:23:00,
2013-08-20 00:29:00,61.2,58.9,30.00,WSW,237,0.0,0.0,92,0.00,,,0.00,0,Wunderground v.1.15,2013-08-20 05:29:00,
2013-08-20 00:34:00,61.2,58.9,30.00,WSW,237,0.0,0.0,92,0.00,,,0.00,0,Wunderground v.1.15,2013-08-20 05:34:00,
2013-08-20 00:39:00,61.1,58.8,30.00,WSW,237,0.0,0.0,92,0.00,,,0.00,0,Wunderground v.1.15,2013-08-20 05:39:00,
2013-08-20 00:45:00,61.2,58.9,30.00,WSW,237,0.0,0.0,92,0.00,,,0.00,0,Wunderground v.1.15,2013-08-20 05:45:00,
2013-08-20 00:50:00,61.1,58.8,30.00,WSW,237,0.0,0.0,92,0.00,,,0.00,0,Wunderground v.1.15,2013-08-20 05:50:00,
2013-08-20 00:55:00,61.1,58.8,30.00,WSW,237,0.0,0.0,92,0.00,,,0.00,0,Wunderground v.1.15,2013-08-20 05:55:00,
2013-08-20 01:01:00,61.0,58.7,30.00,WSW,237,0.0,0.0,92,0.00,,,0.00,0,Wunderground v.1.15,2013-08-20 06:01:00,
2013-08-20 01:07:00,60.9,58.6,30.00,WSW,237,0.0,0.0,92,0.00,,,0.00,0,Wunderground v.1.15,2013-08-20 06:07:00,
2013-08-20 01:12:00,60.8,58.5,30.01,WSW,237,0.0,0.0,92,0.00,,,0.00,0,Wunderground v.1.15,2013-08-20 06:12:00,
2013-08-20 01:18:00,60.8,58.5,30.01,WSW,237,0.0,0.0,92,0.00,,,0.00,0,Wunderground v.1.15,2013-08-20 06:18:00,
2013-08-20 01:23:00,60.7,58.7,30.01,WSW,237,0.0,0.0,93,0.00,,,0.00,0,Wunderground v.1.15,2013-08-20 06:23:00,
2013-08-20 01:28:00,60.7,58.7,30.01,WSW,237,0.0,0.0,93,0.00,,,0.00,0,Wunderground v.1.15,2013-08-20 06:28:00,
2013-08-20 01:34:00,60.7,58.7,30.01,WSW,237,0.0,0.0,93,0.00,,,0.00,0,Wunderground v.1.15,2013-08-20 06:34:00,
2013-08-20 01:40:00,60.7,58.7,30.01,WSW,237,0.0,0.0,93,0.00,,,0.00,0,Wunderground v.1.15,2013-08-20 06:40:00,
2013-08-20 01:45:00,60.7,58.7,30.01,WSW,237,0.0,0.0,93,0.00,,,0.00,0,Wunderground v.1.15,2013-08-20 06:45:00,
2013-08-20 01:50:00,60.7,58.7,30.01,WSW,237,0.0,0.0,93,0.00,,,0.00,0,Wunderground v.1.15,2013-08-20 06:50:00,
2013-08-20 01:56:00,60.8,58.8,30.01,WSW,237,0.0,0.0,93,0.00,,,0.00,0,Wunderground v.1.15,2013-08-20 06:56:00,
2013-08-20 02:01:00,60.7,58.7,30.01,WSW,237,0.0,0.0,93,0.00,,,0.00,0,Wunderground v.1.15,2013-08-20 07:01:00,
2013-08-20 02:06:00,60.7,58.7,30.01,WSW,237,0.0,0.0,93,0.00,,,0.00,0,Wunderground v.1.15,2013-08-20 07:06:00,
2013-08-20 02:11:00,60.6,58.6,30.01,WSW,237,0.0,0.0,93,0.00,,,0.00,0,Wunderground v.1.15,2013-08-20 07:11:00,
2013-08-20 02:16:00,60.6,58.6,30.01,WSW,237,0.0,0.0,93,0.00,,,0.00,0,Wunderground v.1.15,2013-08-20 07:16:00,
2013-08-20 02:21:00,60.6,58.6,30.01,WSW,237,0.0,0.0,93,0.00,,,0.00,0,Wunderground v.1.15,2013-08-20 07:21:00,
2013-08-20 02:26:00,60.5,58.5,30.01,WSW,237,0.0,0.0,93,0.00,,,0.00,0,Wunderground v.1.15,2013-08-20 07:26:00,
2013-08-20 02:31:00,60.5,58.5,30.01,WSW,237,0.0,0.0,93,0.00,,,0.00,0,Wunderground v.1.15,2013-08-20 07:31:00,
2013-08-20 02:36:00,60.5,58.5,30.01,WSW,237,0.0,0.0,93,0.00,,,0.00,0,Wunderground v.1.15,2013-08-20 07:36:00,
2013-08-20 02:41:00,60.6,58.9,30.01,WSW,237,0.0,0.0,94,0.00,,,0.00,0,Wunderground v.1.15,2013-08-20 07:41:00,
2013-08-20 02:46:00,60.6,58.9,30.01,WSW,237,0.0,0.0,94,0.00,,,0.00,0,Wunderground v.1.15,2013-08-20 07:46:00,
2013-08-20 02:51:00,60.6,58.9,30.01,WSW,237,0.0,0.0,94,0.00,,,0.00,0,Wunderground v.1.15,2013-08-20 07:51:00,
2013-08-20 02:56:00,60.6,58.9,30.01,WSW,237,0.0,0.0,94,0.00,,,0.00,0,Wunderground v.1.15,2013-08-20 07:56:00,
2013-08-20 03:01:00,60.7,59.0,30.01,WSW,237,0.0,0.0,94,0.00,,,0.00,0,Wunderground v.1.15,2013-08-20 08:01:00,
2013-08-20 03:06:00,60.7,59.0,30.01,WSW,237,0.0,0.0,94,0.00,,,0.00,0,Wunderground v.1.15,2013-08-20 08:06:00,
2013-08-20 03:11:00,60.7,59.0,30.01,WSW,237,0.0,0.0,94,0.00,,,0.00,0,Wunderground v.1.15,2013-08-20 08:11:00,
2013-08-20 03:16:00,60.9,59.2,30.00,WSW,237,0.0,0.0,94,0.00,,,0.00,0,Wunderground v.1.15,2013-08-20 08:16:00,
2013-08-20 03:21:00,61.1,59.4,30.01,WSW,237,0.0,0.0,94,0.00,,,0.00,0,Wunderground v.1.15,2013-08-20 08:21:00,
2013-08-20 03:26:00,61.2,59.5,30.01,WSW,237,0.0,0.0,94,0.00,,,0.00,0,Wunderground v.1.15,2013-08-20 08:26:00,
2013-08-20 03:32:00,61.1,59.4,30.01,WSW,237,0.0,0.0,94,0.00,,,0.00,0,Wunderground v.1.15,2013-08-20 08:32:00,
2013-08-20 03:37:00,61.1,59.4,30.01,WSW,237,0.0,0.0,94,0.00,,,0.00,0,Wunderground v.1.15,2013-08-20 08:37:00,
2013-08-20 03:42:00,61.2,59.5,30.00,WSW,237,0.0,0.0,94,0.00,,,0.00,0,Wunderground v.1.15,2013-08-20 08:42:00,
2013-08-20 03:47:00,61.3,59.6,30.01,WSW,237,0.0,0.0,94,0.00,,,0.00,0,Wunderground v.1.15,2013-08-20 08:47:00,
2013-08-20 03:52:00,61.4,59.7,30.00,WSW,237,0.0,0.0,94,0.00,,,0.00,0,Wunderground v.1.15,2013-08-20 08:52:00,
2013-08-20 03:57:00,61.6,60.2,30.00,WSW,237,0.0,0.0,95,0.00,,,0.00,0,Wunderground v.1.15,2013-08-20 08:57:00,
2013-08-20 04:02:00,62.1,60.7,30.00,WSW,237,0.0,0.0,95,0.00,,,0.00,0,Wunderground v.1.15,2013-08-20 09:02:00,
2013-08-20 04:07:00,62.3,60.8,30.00,WSW,237,0.0,0.0,95,0.00,,,0.00,0,Wunderground v.1.15,2013-08-20 09:07:00,
2013-08-20 04:12:00,62.3,60.8,30.00,WSW,237,0.0,0.0,95,0.00,,,0.00,0,Wunderground v.1.15,2013-08-20 09:12:00,
2013-08-20 04:17:00,62.6,61.1,30.00,WSW,237,0.0,0.0,95,0.00,,,0.00,0,Wunderground v.1.15,2013-08-20 09:17:00,
2013-08-20 04:22:00,63.0,61.8,30.00,WSW,237,0.0,0.0,96,0.00,,,0.00,0,Wunderground v.1.15,2013-08-20 09:22:00,
2013-08-20 04:27:00,63.3,62.1,30.00,WSW,237,0.0,0.0,96,0.00,,,0.00,0,Wunderground v.1.15,2013-08-20 09:27:00,
2013-08-20 04:32:00,63.4,61.9,30.01,WSW,237,0.0,0.0,95,0.00,,,0.00,0,Wunderground v.1.15,2013-08-20 09:32:00,
2013-08-20 04:37:00,63.2,61.4,30.00,WSW,237,0.0,0.0,94,0.00,,,0.00,0,Wunderground v.1.15,2013-08-20 09:37:00,
2013-08-20 04:42:00,63.1,61.3,30.00,WSW,237,0.0,0.0,94,0.00,,,0.00,0,Wunderground v.1.15,2013-08-20 09:42:00,
2013-08-20 04:47:00,63.1,61.3,30.00,WSW,237,0.0,0.0,94,0.00,,,0.00,0,Wunderground v.1.15,2013-08-20 09:47:00,
2013-08-20 04:52:00,63.1,61.3,30.01,WSW,237,0.0,0.0,94,0.00,,,0.00,0,Wunderground v.1.15,2013-08-20 09:52:00,
2013-08-20 04:57:00,63.1,61.3,30.01,WSW,237,0.0,0.0,94,0.00,,,0.00,0,Wunderground v.1.15,2013-08-20 09:57:00,
2013-08-20 05:03:00,63.1,61.3,30.01,WSW,237,0.0,0.0,94,0.00,,,0.00,0,Wunderground v.1.15,2013-08-20 10:03:00,
2013-08-20 05:08:00,63.2,61.4,30.01,WSW,237,0.0,0.0,94,0.00,,,0.00,0,Wunderground v.1.15,2013-08-20 10:08:00,
2013-08-20 05:13:00,63.5,62.0,30.01,WSW,237,0.0,0.0,95,0.00,,,0.00,0,Wunderground v.1.15,2013-08-20 10:13:00,
2013-08-20 05:18:00,63.6,62.1,30.02,WSW,237,0.0,0.0,95,0.00,,,0.00,0,Wunderground v.1.15,2013-08-20 10:18:00,
2013-08-20 05:23:00,63.8,62.3,30.02,WSW,237,0.0,0.0,95,0.00,,,0.00,0,Wunderground v.1.15,2013-08-20 10:23:00,
2013-08-20 05:28:00,63.9,62.4,30.02,WSW,237,0.0,1.0,95,0.00,,,0.00,0,Wunderground v.1.15,2013-08-20 10:28:00,
2013-08-20 05:33:00,64.1,62.6,30.02,WSW,237,0.0,0.0,95,0.00,,,0.00,0,Wunderground v.1.15,2013-08-20 10:33:00,
2013-08-20 05:38:00,64.3,62.8,30.02,WSW,237,0.0,0.0,95,0.00,,,0.00,0,Wunderground v.1.15,2013-08-20 10:38:00,
2013-08-20 05:43:00,64.5,63.0,30.02,WSW,237,0.0,0.0,95,0.00,,,0.00,0,Wunderground v.1.15,2013-08-20 10:43:00,
2013-08-20 05:48:00,64.7,63.2,30.02,WSW,237,0.0,0.0,95,0.00,,,0.00,0,Wunderground v.1.15,2013-08-20 10:48:00,
2013-08-20 05:53:00,64.9,63.4,30.02,SW,234,0.0,0.0,95,0.00,,,0.00,0,Wunderground v.1.15,2013-08-20 10:53:00,
2013-08-20 05:58:00,65.2,63.7,30.02,SW,232,0.0,1.0,95,0.00,,,0.00,0,Wunderground v.1.15,2013-08-20 10:58:00,
2013-08-20 06:03:00,65.4,63.9,30.02,SW,232,0.0,0.0,95,0.00,,,0.00,0,Wunderground v.1.15,2013-08-20 11:03:00,
2013-08-20 06:08:00,65.6,64.1,30.02,SW,233,0.0,2.0,95,0.00,,,0.00,0,Wunderground v.1.15,2013-08-20 11:08:00,
2013-08-20 06:13:00,65.9,64.1,30.02,South,188,0.0,4.0,94,0.00,,,0.00,0,Wunderground v.1.15,2013-08-20 11:13:00,
2013-08-20 06:18:00,66.1,64.3,30.03,South,188,0.0,4.0,94,0.00,,,0.00,5,Wunderground v.1.15,2013-08-20 11:18:00,
2013-08-20 06:23:00,66.3,64.5,30.03,South,188,0.0,1.0,94,0.00,,,0.00,7,Wunderground v.1.15,2013-08-20 11:23:00,
2013-08-20 06:28:00,66.5,64.4,30.03,South,188,0.0,2.0,93,0.00,,,0.00,11,Wunderground v.1.15,2013-08-20 11:28:00,
2013-08-20 06:34:00,66.6,64.5,30.03,South,188,0.0,0.0,93,0.00,,,0.00,12,Wunderground v.1.15,2013-08-20 11:34:00,
2013-08-20 06:39:00,66.7,64.6,30.03,South,188,0.0,1.0,93,0.00,,,0.00,16,Wunderground v.1.15,2013-08-20 11:39:00,
2013-08-20 06:44:00,66.8,64.4,30.03,South,188,0.0,0.0,92,0.00,,,0.00,21,Wunderground v.1.15,2013-08-20 11:44:00,
2013-08-20 06:49:00,67.0,64.6,30.03,SSW,205,0.0,0.0,92,0.00,,,0.00,26,Wunderground v.1.15,2013-08-20 11:49:00,
2013-08-20 06:54:00,67.2,64.8,30.03,SSW,200,1.0,3.0,92,0.00,,,0.00,28,Wunderground v.1.15,2013-08-20 11:54:00,
2013-08-20 06:59:00,67.4,64.7,30.03,SSW,195,0.0,4.0,91,0.00,,,0.00,33,Wunderground v.1.15,2013-08-20 11:59:00,
2013-08-20 07:04:00,67.7,65.0,30.03,SSW,195,0.0,1.0,91,0.00,,,0.00,37,Wunderground v.1.15,2013-08-20 12:04:00,
2013-08-20 07:09:00,67.9,64.9,30.03,SSW,195,1.0,2.0,90,0.00,,,0.00,53,Wunderground v.1.15,2013-08-20 12:09:00,
2013-08-20 07:14:00,68.1,65.1,30.04,SSW,195,0.0,3.0,90,0.00,,,0.00,46,Wunderground v.1.15,2013-08-20 12:14:00,
2013-08-20 07:19:00,68.3,64.9,30.04,SSW,195,0.0,3.0,89,0.00,,,0.00,54,Wunderground v.1.15,2013-08-20 12:19:00,
2013-08-20 07:24:00,68.4,65.0,30.04,SSW,195,0.0,1.0,89,0.00,,,0.00,63,Wunderground v.1.15,2013-08-20 12:24:00,
2013-08-20 07:29:00,68.6,65.2,30.04,SSW,195,0.0,1.0,89,0.00,,,0.00,74,Wunderground v.1.15,2013-08-20 12:29:00,
2013-08-20 07:35:00,68.8,65.4,30.04,SSW,195,0.0,0.0,89,0.00,,,0.00,86,Wunderground v.1.15,2013-08-20 12:35:00,
2013-08-20 07:40:00,68.9,65.2,30.04,SSW,195,0.0,0.0,88,0.00,,,0.00,91,Wunderground v.1.15,2013-08-20 12:40:00,
2013-08-20 07:45:00,69.1,65.4,30.04,SSW,195,0.0,0.0,88,0.00,,,0.00,107,Wunderground v.1.15,2013-08-20 12:45:00,
2013-08-20 07:50:00,69.4,65.7,30.04,SSW,195,0.0,0.0,88,0.00,,,0.00,105,Wunderground v.1.15,2013-08-20 12:50:00,
2013-08-20 07:55:00,69.6,65.6,30.04,SSW,195,0.0,0.0,87,0.00,,,0.00,114,Wunderground v.1.15,2013-08-20 12:55:00,
2013-08-20 08:00:00,69.9,66.2,30.04,SSW,195,0.0,0.0,88,0.00,,,0.00,125,Wunderground v.1.15,2013-08-20 13:00:00,
2013-08-20 08:05:00,70.2,66.1,30.04,SSW,195,0.0,0.0,87,0.00,,,0.00,135,Wunderground v.1.15,2013-08-20 13:05:00,
2013-08-20 08:10:00,70.4,66.0,30.04,SSW,195,0.0,0.0,86,0.00,,,0.00,142,Wunderground v.1.15,2013-08-20 13:10:00,
2013-08-20 08:15:00,70.7,66.3,30.04,SSW,195,0.0,1.0,86,0.00,,,0.00,153,Wunderground v.1.15,2013-08-20 13:15:00,
2013-08-20 08:20:00,70.8,65.7,30.04,SSW,195,1.0,2.0,84,0.00,,,0.00,171,Wunderground v.1.15,2013-08-20 13:20:00,
2013-08-20 08:25:00,70.9,65.5,30.04,SW,217,0.0,3.0,83,0.00,,,0.00,193,Wunderground v.1.15,2013-08-20 13:25:00,
2013-08-20 08:30:00,71.2,65.8,30.04,SW,217,0.0,2.0,83,0.00,,,0.00,271,Wunderground v.1.15,2013-08-20 13:30:00,
2013-08-20 08:35:00,71.5,65.7,30.04,WNW,293,0.0,3.0,82,0.00,,,0.00,241,Wunderground v.1.15,2013-08-20 13:35:00,
2013-08-20 08:40:00,72.0,66.2,30.04,WSW,248,0.0,1.0,82,0.00,,,0.00,327,Wunderground v.1.15,2013-08-20 13:40:00,
2013-08-20 08:45:00,72.4,66.6,30.04,WSW,248,0.0,1.0,82,0.00,,,0.00,422,Wunderground v.1.15,2013-08-20 13:45:00,
2013-08-20 08:50:00,72.9,66.7,30.04,WSW,248,0.0,0.0,81,0.00,,,0.00,318,Wunderground v.1.15,2013-08-20 13:50:00,
2013-08-20 08:55:00,73.4,66.5,30.04,WSW,251,0.0,6.0,79,0.00,,,0.00,439,Wunderground v.1.15,2013-08-20 13:55:00,
2013-08-20 09:00:00,73.7,66.4,30.04,West,259,2.0,2.0,78,0.00,,,0.00,246,Wunderground v.1.15,2013-08-20 14:00:00,
2013-08-20 09:05:00,73.7,66.4,30.04,West,271,0.0,3.0,78,0.00,,,0.00,431,Wunderground v.1.15,2013-08-20 14:05:00,
2013-08-20 09:10:00,73.7,66.4,30.04,WSW,252,2.0,3.0,78,0.00,,,0.00,311,Wunderground v.1.15,2013-08-20 14:10:00,
2013-08-20 09:15:00,74.0,66.7,30.04,West,260,0.0,3.0,78,0.00,,,0.00,466,Wunderground v.1.15,2013-08-20 14:15:00,
2013-08-20 09:20:00,74.4,66.7,30.04,SSE,157,2.0,3.0,77,0.00,,,0.00,441,Wunderground v.1.15,2013-08-20 14:20:00,
2013-08-20 09:25:00,74.7,67.0,30.04,SSE,158,0.0,3.0,77,0.00,,,0.00,485,Wunderground v.1.15,2013-08-20 14:25:00,
2013-08-20 09:30:00,75.3,67.6,30.04,SSE,159,3.0,3.0,77,0.00,,,0.00,492,Wunderground v.1.15,2013-08-20 14:30:00,
2013-08-20 09:35:00,75.9,67.4,30.04,South,182,0.0,5.0,75,0.00,,,0.00,504,Wunderground v.1.15,2013-08-20 14:35:00,
2013-08-20 09:40:00,76.5,67.6,30.04,South,180,0.0,1.0,74,0.00,,,0.00,520,Wunderground v.1.15,2013-08-20 14:40:00,
2013-08-20 09:45:00,76.9,67.2,30.04,West,265,0.0,6.0,72,0.00,,,0.00,531,Wunderground v.1.15,2013-08-20 14:45:00,
2013-08-20 09:50:00,77.3,68.0,30.04,South,176,0.0,1.0,73,0.00,,,0.00,547,Wunderground v.1.15,2013-08-20 14:50:00,
2013-08-20 09:55:00,77.5,68.2,30.04,SSE,157,3.0,4.0,73,0.00,,,0.00,559,Wunderground v.1.15,2013-08-20 14:55:00,
2013-08-20 10:00:00,77.5,67.8,30.04,SSE,162,5.0,5.0,72,0.00,,,0.00,577,Wunderground v.1.15,2013-08-20 15:00:00,
2013-08-20 10:05:00,77.5,68.6,30.04,SSE,148,5.0,6.0,74,0.00,,,0.00,585,Wunderground v.1.15,2013-08-20 15:05:00,
2013-08-20 10:10:00,77.5,68.6,30.04,SSE,155,3.0,8.0,74,0.00,,,0.00,584,Wunderground v.1.15,2013-08-20 15:10:00,
2013-08-20 10:15:00,77.5,67.8,30.04,SSE,157,5.0,8.0,72,0.00,,,0.00,608,Wunderground v.1.15,2013-08-20 15:15:00,
2013-08-20 10:20:00,77.6,68.7,30.04,South,171,2.0,4.0,74,0.00,,,0.00,619,Wunderground v.1.15,2013-08-20 15:20:00,
2013-08-20 10:25:00,78.1,68.7,30.04,South,177,2.0,7.0,73,0.00,,,0.00,633,Wunderground v.1.15,2013-08-20 15:25:00,
2013-08-20 10:30:00,78.4,68.6,30.03,SSE,165,3.0,5.0,72,0.00,,,0.00,642,Wunderground v.1.15,2013-08-20 15:30:00,
2013-08-20 10:35:00,78.6,68.8,30.03,SSE,167,3.0,8.0,72,0.00,,,0.00,652,Wunderground v.1.15,2013-08-20 15:35:00,
2013-08-20 10:40:00,78.8,69.0,30.03,SSE,166,0.0,4.0,72,0.00,,,0.00,671,Wunderground v.1.15,2013-08-20 15:40:00,
2013-08-20 10:45:00,79.2,69.0,30.03,South,175,0.0,6.0,71,0.00,,,0.00,675,Wunderground v.1.15,2013-08-20 15:45:00,
2013-08-20 10:50:00,79.7,69.5,30.03,SSE,163,0.0,2.0,71,0.00,,,0.00,687,Wunderground v.1.15,2013-08-20 15:50:00,
2013-08-20 10:55:00,80.3,68.8,30.03,SSE,163,0.0,6.0,68,0.00,,,0.00,698,Wunderground v.1.15,2013-08-20 15:55:00,
2013-08-20 11:00:00,81.0,69.4,30.03,WSW,242,1.0,1.0,68,0.00,,,0.00,705,Wunderground v.1.15,2013-08-20 16:00:00,
2013-08-20 11:05:00,81.5,68.1,30.03,SW,234,2.0,8.0,64,0.00,,,0.00,719,Wunderground v.1.15,2013-08-20 16:05:00,
2013-08-20 11:10:00,82.0,68.6,30.03,WNW,298,2.0,5.0,64,0.00,,,0.00,728,Wunderground v.1.15,2013-08-20 16:10:00,
2013-08-20 11:15:00,82.2,67.9,30.03,WSW,248,1.0,8.0,62,0.00,,,0.00,728,Wunderground v.1.15,2013-08-20 16:15:00,
2013-08-20 11:20:00,82.6,69.6,30.02,South,169,2.0,4.0,65,0.00,,,0.00,737,Wunderground v.1.15,2013-08-20 16:20:00,
2013-08-20 11:25:00,82.9,69.9,30.02,South,186,2.0,8.0,65,0.00,,,0.00,749,Wunderground v.1.15,2013-08-20 16:25:00,
2013-08-20 11:30:00,82.8,69.4,30.03,SSE,149,3.0,3.0,64,0.00,,,0.00,756,Wunderground v.1.15,2013-08-20 16:30:00,
2013-08-20 11:35:00,82.8,69.8,30.02,South,170,2.0,8.0,65,0.00,,,0.00,765,Wunderground v.1.15,2013-08-20 16:35:00,
2013-08-20 11:40:00,82.5,70.0,30.03,SW,223,2.0,3.0,66,0.00,,,0.00,773,Wunderground v.1.15,2013-08-20 16:40:00,
2013-08-20 11:45:00,82.6,69.6,30.03,SSW,202,4.0,8.0,65,0.00,,,0.00,770,Wunderground v.1.15,2013-08-20 16:45:00,
2013-08-20 11:50:00,82.7,68.8,30.03,SW,232,1.0,4.0,63,0.00,,,0.00,777,Wunderground v.1.15,2013-08-20 16:50:00,
2013-08-20 11:55:00,82.6,68.7,30.03,SSE,164,0.0,7.0,63,0.00,,,0.00,786,Wunderground v.1.15,2013-08-20 16:55:00,
2013-08-20 12:00:00,82.8,69.8,30.03,SSE,167,7.0,8.0,65,0.00,,,0.00,789,Wunderground v.1.15,2013-08-20 17:00:00,
2013-08-20 12:05:00,83.0,68.6,30.02,SE,142,4.0,8.0,62,0.00,,,0.00,793,Wunderground v.1.15,2013-08-20 17:05:00,
2013-08-20 12:10:00,83.2,69.3,30.02,WSW,257,5.0,7.0,63,0.00,,,0.00,802,Wunderground v.1.15,2013-08-20 17:10:00,
2013-08-20 12:15:00,83.3,69.4,30.02,WSW,251,0.0,7.0,63,0.00,,,0.00,800,Wunderground v.1.15,2013-08-20 17:15:00,
2013-08-20 12:21:00,83.6,68.7,30.02,South,187,1.0,3.0,61,0.00,,,0.00,803,Wunderground v.1.15,2013-08-20 17:21:00,
2013-08-20 12:26:00,83.8,69.4,30.02,SSW,196,1.0,7.0,62,0.00,,,0.00,803,Wunderground v.1.15,2013-08-20 17:26:00,
2013-08-20 12:31:00,83.8,68.9,30.01,SSW,195,0.0,4.0,61,0.00,,,0.00,821,Wunderground v.1.15,2013-08-20 17:31:00,
2013-08-20 12:36:00,83.9,69.0,30.02,SSE,165,3.0,11.0,61,0.00,,,0.00,819,Wunderground v.1.15,2013-08-20 17:36:00,
2013-08-20 12:41:00,83.7,67.8,30.01,SW,227,1.0,7.0,59,0.00,,,0.00,817,Wunderground v.1.15,2013-08-20 17:41:00,
2013-08-20 12:46:00,83.7,67.4,30.01,SSE,161,0.0,7.0,58,0.00,,,0.00,833,Wunderground v.1.15,2013-08-20 17:46:00,
2013-08-20 12:51:00,84.0,68.1,30.01,SSW,207,0.0,3.0,59,0.00,,,0.00,833,Wunderground v.1.15,2013-08-20 17:51:00,
2013-08-20 12:56:00,84.5,67.6,30.01,SSE,152,4.0,8.0,57,0.00,,,0.00,854,Wunderground v.1.15,2013-08-20 17:56:00,
2013-08-20 13:01:00,84.7,67.8,30.01,SE,136,8.0,9.0,57,0.00,,,0.00,847,Wunderground v.1.15,2013-08-20 18:01:00,
2013-08-20 13:06:00,84.7,67.8,30.01,SSE,148,1.0,9.0,57,0.00,,,0.00,844,Wunderground v.1.15,2013-08-20 18:06:00,
2013-08-20 13:11:00,84.6,67.7,30.01,SSE,153,5.0,6.0,57,0.00,,,0.00,824,Wunderground v.1.15,2013-08-20 18:11:00,
2013-08-20 13:16:00,84.7,67.8,30.00,WSW,240,9.0,9.0,57,0.00,,,0.00,817,Wunderground v.1.15,2013-08-20 18:16:00,
2013-08-20 13:21:00,84.9,68.0,30.00,SSE,168,5.0,6.0,57,0.00,,,0.00,819,Wunderground v.1.15,2013-08-20 18:21:00,
2013-08-20 13:26:00,85.1,67.1,30.01,SSW,210,1.0,8.0,55,0.00,,,0.00,842,Wunderground v.1.15,2013-08-20 18:26:00,
2013-08-20 13:31:00,85.2,67.7,30.00,SE,140,4.0,7.0,56,0.00,,,0.00,830,Wunderground v.1.15,2013-08-20 18:31:00,
2013-08-20 13:36:00,85.2,68.2,30.00,WSW,247,2.0,8.0,57,0.00,,,0.00,823,Wunderground v.1.15,2013-08-20 18:36:00,
2013-08-20 13:41:00,85.2,67.7,30.00,SSE,153,4.0,6.0,56,0.00,,,0.00,796,Wunderground v.1.15,2013-08-20 18:41:00,
2013-08-20 13:46:00,85.3,67.8,30.00,SSE,162,3.0,8.0,56,0.00,,,0.00,833,Wunderground v.1.15,2013-08-20 18:46:00,
2013-08-20 13:51:00,85.5,67.5,30.00,SSE,156,4.0,8.0,55,0.00,,,0.00,807,Wunderground v.1.15,2013-08-20 18:51:00,
2013-08-20 13:56:00,85.4,68.4,30.00,SSW,199,0.0,11.0,57,0.00,,,0.00,793,Wunderground v.1.15,2013-08-20 18:56:00,
2013-08-20 14:01:00,85.3,68.3,30.00,South,169,1.0,8.0,57,0.00,,,0.00,810,Wunderground v.1.15,2013-08-20 19:01:00,
2013-08-20 14:06:00,85.3,68.8,30.00,South,175,2.0,8.0,58,0.00,,,0.00,809,Wunderground v.1.15,2013-08-20 19:06:00,
2013-08-20 14:11:00,85.4,68.4,30.00,West,264,0.0,4.0,57,0.00,,,0.00,752,Wunderground v.1.15,2013-08-20 19:11:00,
2013-08-20 14:16:00,85.7,68.7,30.00,SSE,153,0.0,5.0,57,0.00,,,0.00,805,Wunderground v.1.15,2013-08-20 19:16:00,
2013-08-20 14:22:00,85.8,68.3,30.00,WSW,238,3.0,4.0,56,0.00,,,0.00,807,Wunderground v.1.15,2013-08-20 19:22:00,
2013-08-20 14:27:00,85.8,67.8,29.99,SW,219,1.0,6.0,55,0.00,,,0.00,846,Wunderground v.1.15,2013-08-20 19:27:00,
2013-08-20 14:32:00,85.8,68.3,29.99,South,171,6.0,6.0,56,0.00,,,0.00,788,Wunderground v.1.15,2013-08-20 19:32:00,
2013-08-20 14:37:00,85.4,66.9,29.99,WSW,238,1.0,7.0,54,0.00,,,0.00,415,Wunderground v.1.15,2013-08-20 19:37:00,
2013-08-20 14:42:00,85.1,67.6,29.99,SSE,152,4.0,5.0,56,0.00,,,0.00,800,Wunderground v.1.15,2013-08-20 19:42:00,
2013-08-20 14:47:00,85.3,68.3,29.99,South,188,4.0,7.0,57,0.00,,,0.00,738,Wunderground v.1.15,2013-08-20 19:47:00,
2013-08-20 14:52:00,85.6,67.6,29.99,SSE,155,0.0,6.0,55,0.00,,,0.00,773,Wunderground v.1.15,2013-08-20 19:52:00,
2013-08-20 14:57:00,85.5,68.0,29.99,SE,146,5.0,8.0,56,0.00,,,0.00,768,Wunderground v.1.15,2013-08-20 19:57:00,
2013-08-20 15:02:00,85.4,68.9,29.99,SW,227,0.0,6.0,58,0.00,,,0.00,707,Wunderground v.1.15,2013-08-20 20:02:00,
2013-08-20 15:07:00,85.5,68.0,29.99,SSE,167,4.0,7.0,56,0.00,,,0.00,698,Wunderground v.1.15,2013-08-20 20:07:00,
2013-08-20 15:12:00,85.5,69.0,29.99,SSW,194,0.0,5.0,58,0.00,,,0.00,679,Wunderground v.1.15,2013-08-20 20:12:00,
2013-08-20 15:17:00,85.5,68.0,29.98,South,178,0.0,6.0,56,0.00,,,0.00,650,Wunderground v.1.15,2013-08-20 20:17:00,
2013-08-20 15:22:00,85.4,67.4,29.98,SSE,165,1.0,8.0,55,0.00,,,0.00,663,Wunderground v.1.15,2013-08-20 20:22:00,
2013-08-20 15:27:00,85.4,68.4,29.98,South,177,2.0,8.0,57,0.00,,,0.00,664,Wunderground v.1.15,2013-08-20 20:27:00,
2013-08-20 15:32:00,85.4,69.4,29.98,SSE,158,3.0,5.0,59,0.00,,,0.00,635,Wunderground v.1.15,2013-08-20 20:32:00,
2013-08-20 15:37:00,85.2,68.2,29.98,SSE,165,4.0,6.0,57,0.00,,,0.00,315,Wunderground v.1.15,2013-08-20 20:37:00,
2013-08-20 15:42:00,84.8,69.4,29.98,SE,130,4.0,7.0,60,0.00,,,0.00,631,Wunderground v.1.15,2013-08-20 20:42:00,
2013-08-20 15:47:00,84.7,68.3,29.98,SSE,149,2.0,12.0,58,0.00,,,0.00,585,Wunderground v.1.15,2013-08-20 20:47:00,
2013-08-20 15:52:00,84.4,67.5,29.98,South,171,2.0,6.0,57,0.00,,,0.00,594,Wunderground v.1.15,2013-08-20 20:52:00,
2013-08-20 15:57:00,84.3,67.4,29.98,South,185,2.0,7.0,57,0.00,,,0.00,571,Wunderground v.1.15,2013-08-20 20:57:00,
2013-08-20 16:02:00,84.4,67.0,29.98,SSW,208,0.0,5.0,56,0.00,,,0.00,543,Wunderground v.1.15,2013-08-20 21:02:00,
2013-08-20 16:08:00,84.6,67.2,29.98,WSW,248,1.0,5.0,56,0.00,,,0.00,330,Wunderground v.1.15,2013-08-20 21:08:00,
2013-08-20 16:13:00,84.5,67.1,29.98,WSW,245,0.0,6.0,56,0.00,,,0.00,531,Wunderground v.1.15,2013-08-20 21:13:00,
2013-08-20 16:18:00,84.5,67.1,29.98,SE,142,2.0,6.0,56,0.00,,,0.00,517,Wunderground v.1.15,2013-08-20 21:18:00,
2013-08-20 16:23:00,84.5,67.1,29.97,SSE,156,3.0,8.0,56,0.00,,,0.00,490,Wunderground v.1.15,2013-08-20 21:23:00,
2013-08-20 16:27:00,84.6,67.7,29.97,SSE,148,6.0,8.0,57,0.00,,,0.00,468,Wunderground v.1.15,2013-08-20 21:27:00,
2013-08-20 16:32:00,84.5,67.6,29.97,South,179,3.0,3.0,57,0.00,,,0.00,459,Wunderground v.1.15,2013-08-20 21:32:00,
2013-08-20 16:37:00,84.4,67.5,29.97,SW,221,2.0,7.0,57,0.00,,,0.00,459,Wunderground v.1.15,2013-08-20 21:37:00,
2013-08-20 16:43:00,84.2,67.3,29.97,SSE,163,4.0,6.0,57,0.00,,,0.00,425,Wunderground v.1.15,2013-08-20 21:43:00,
2013-08-20 16:48:00,84.1,67.7,29.97,SSE,164,5.0,6.0,58,0.00,,,0.00,436,Wunderground v.1.15,2013-08-20 21:48:00,
2013-08-20 16:53:00,84.0,67.6,29.97,SW,217,1.0,7.0,58,0.00,,,0.00,369,Wunderground v.1.15,2013-08-20 21:53:00,
2013-08-20 16:58:00,84.0,67.6,29.97,SE,138,0.0,7.0,58,0.00,,,0.00,399,Wunderground v.1.15,2013-08-20 21:58:00,
2013-08-20 17:03:00,84.0,67.6,29.97,SSE,148,2.0,5.0,58,0.00,,,0.00,390,Wunderground v.1.15,2013-08-20 22:03:00,
2013-08-20 17:08:00,83.9,67.5,29.97,South,173,4.0,6.0,58,0.00,,,0.00,385,Wunderground v.1.15,2013-08-20 22:08:00,
2013-08-20 17:13:00,83.7,67.8,29.97,SSE,168,0.0,8.0,59,0.00,,,0.00,380,Wunderground v.1.15,2013-08-20 22:13:00,
2013-08-20 17:18:00,83.7,67.4,29.97,SW,218,1.0,8.0,58,0.00,,,0.00,364,Wunderground v.1.15,2013-08-20 22:18:00,
2013-08-20 17:23:00,83.6,68.2,29.97,South,180,2.0,5.0,60,0.00,,,0.00,345,Wunderground v.1.15,2013-08-20 22:23:00,
2013-08-20 17:28:00,83.5,67.7,29.97,West,275,0.0,5.0,59,0.00,,,0.00,327,Wunderground v.1.15,2013-08-20 22:28:00,
2013-08-20 17:33:00,83.4,67.6,29.97,SW,227,2.0,5.0,59,0.00,,,0.00,315,Wunderground v.1.15,2013-08-20 22:33:00,
2013-08-20 17:38:00,83.1,67.8,29.97,SSE,162,0.0,7.0,60,0.00,,,0.00,306,Wunderground v.1.15,2013-08-20 22:38:00,
2013-08-20 17:43:00,83.0,67.7,29.96,SE,145,0.0,7.0,60,0.00,,,0.00,285,Wunderground v.1.15,2013-08-20 22:43:00,
2013-08-20 17:48:00,82.9,67.6,29.97,South,175,0.0,7.0,60,0.00,,,0.00,264,Wunderground v.1.15,2013-08-20 22:48:00,
2013-08-20 17:53:00,82.9,67.1,29.97,SSE,161,2.0,5.0,59,0.00,,,0.00,251,Wunderground v.1.15,2013-08-20 22:53:00,
2013-08-20 17:58:00,82.9,67.1,29.97,SSW,201,4.0,11.0,59,0.00,,,0.00,241,Wunderground v.1.15,2013-08-20 22:58:00,
2013-08-20 18:03:00,82.9,67.1,29.97,SW,220,1.0,3.0,59,0.00,,,0.00,220,Wunderground v.1.15,2013-08-20 23:03:00,
2013-08-20 18:08:00,82.8,67.0,29.96,South,178,1.0,4.0,59,0.00,,,0.00,172,Wunderground v.1.15,2013-08-20 23:08:00,
2013-08-20 18:13:00,82.8,67.0,29.96,SW,224,0.0,3.0,59,0.00,,,0.00,128,Wunderground v.1.15,2013-08-20 23:13:00,
2013-08-20 18:18:00,82.6,66.8,29.96,SW,221,1.0,6.0,59,0.00,,,0.00,90,Wunderground v.1.15,2013-08-20 23:18:00,
2013-08-20 18:23:00,82.4,66.1,29.96,WSW,239,1.0,6.0,58,0.00,,,0.00,84,Wunderground v.1.15,2013-08-20 23:23:00,
2013-08-20 18:28:00,82.2,66.9,29.96,SSW,194,1.0,6.0,60,0.00,,,0.00,81,Wunderground v.1.15,2013-08-20 23:28:00,
2013-08-20 18:33:00,82.0,67.2,29.96,South,174,0.0,3.0,61,0.00,,,0.00,79,Wunderground v.1.15,2013-08-20 23:33:00,
2013-08-20 18:38:00,81.8,67.5,29.96,SW,220,0.0,3.0,62,0.00,,,0.00,72,Wunderground v.1.15,2013-08-20 23:38:00,
2013-08-20 18:43:00,81.6,67.3,29.96,SW,231,0.0,3.0,62,0.00,,,0.00,67,Wunderground v.1.15,2013-08-20 23:43:00,
2013-08-20 18:48:00,81.4,67.1,29.96,SSW,213,0.0,3.0,62,0.00,,,0.00,62,Wunderground v.1.15,2013-08-20 23:48:00,
2013-08-20 18:53:00,81.3,67.5,29.96,SW,215,0.0,4.0,63,0.00,,,0.00,56,Wunderground v.1.15,2013-08-20 23:53:00,
2013-08-20 18:58:00,81.1,67.8,29.96,South,171,5.0,5.0,64,0.00,,,0.00,53,Wunderground v.1.15,2013-08-20 23:58:00,
2013-08-20 19:03:00,80.8,67.9,29.96,SW,219,1.0,3.0,65,0.00,,,0.00,47,Wunderground v.1.15,2013-08-21 00:03:00,
2013-08-20 19:08:00,80.6,67.7,29.96,South,180,0.0,5.0,65,0.00,,,0.00,42,Wunderground v.1.15,2013-08-21 00:08:00,
2013-08-20 19:13:00,80.3,67.5,29.96,South,178,0.0,3.0,65,0.00,,,0.00,39,Wunderground v.1.15,2013-08-21 00:13:00,
2013-08-20 19:18:00,80.2,67.8,29.96,SSW,213,0.0,3.0,66,0.00,,,0.00,33,Wunderground v.1.15,2013-08-21 00:18:00,
2013-08-20 19:23:00,80.0,67.6,29.96,South,180,1.0,2.0,66,0.00,,,0.00,30,Wunderground v.1.15,2013-08-21 00:23:00,
2013-08-20 19:28:00,79.8,67.4,29.96,SSW,194,1.0,4.0,66,0.00,,,0.00,25,Wunderground v.1.15,2013-08-21 00:28:00,
2013-08-20 19:33:00,79.6,67.2,29.97,South,171,2.0,3.0,66,0.00,,,0.00,19,Wunderground v.1.15,2013-08-21 00:33:00,
2013-08-20 19:38:00,79.5,67.1,29.96,SSW,202,1.0,4.0,66,0.00,,,0.00,14,Wunderground v.1.15,2013-08-21 00:38:00,
2013-08-20 19:43:00,79.3,67.4,29.96,SSW,199,1.0,3.0,67,0.00,,,0.00,11,Wunderground v.1.15,2013-08-21 00:43:00,
2013-08-20 19:48:00,79.1,67.2,29.97,SE,136,2.0,3.0,67,0.00,,,0.00,7,Wunderground v.1.15,2013-08-21 00:48:00,
2013-08-20 19:53:00,78.9,67.4,29.97,WSW,240,0.0,2.0,68,0.00,,,0.00,0,Wunderground v.1.15,2013-08-21 00:53:00,
2013-08-20 19:58:00,78.7,67.2,29.97,South,190,0.0,3.0,68,0.00,,,0.00,0,Wunderground v.1.15,2013-08-21 00:58:00,
2013-08-20 20:03:00,78.5,67.1,29.97,South,173,0.0,2.0,68,0.00,,,0.00,0,Wunderground v.1.15,2013-08-21 01:03:00,
2013-08-20 20:08:00,78.4,67.0,29.97,South,180,0.0,2.0,68,0.00,,,0.00,0,Wunderground v.1.15,2013-08-21 01:08:00,
2013-08-20 20:13:00,78.4,67.0,29.97,South,176,2.0,3.0,68,0.00,,,0.00,0,Wunderground v.1.15,2013-08-21 01:13:00,
2013-08-20 20:18:00,78.2,67.2,29.97,SSW,198,0.0,4.0,69,0.00,,,0.00,0,Wunderground v.1.15,2013-08-21 01:18:00,
2013-08-20 20:19:00,78.2,67.2,29.97,SW,233,1.0,4.0,69,0.00,,,0.00,0,Wunderground v.1.15,2013-08-21 01:19:00,
2013-08-20 20:24:00,78.1,67.1,29.97,SW,218,0.0,2.0,69,0.00,,,0.00,0,Wunderground v.1.15,2013-08-21 01:24:00,
2013-08-20 20:29:00,78.0,67.4,29.97,SW,218,0.0,2.0,70,0.00,,,0.00,0,Wunderground v.1.15,2013-08-21 01:29:00,
2013-08-20 20:34:00,77.7,67.1,29.97,South,183,0.0,0.0,70,0.00,,,0.00,0,Wunderground v.1.15,2013-08-21 01:34:00,
2013-08-20 20:39:00,77.5,66.9,29.97,SSE,167,1.0,4.0,70,0.00,,,0.00,0,Wunderground v.1.15,2013-08-21 01:39:00,
2013-08-20 20:44:00,77.4,67.3,29.98,SW,229,2.0,3.0,71,0.00,,,0.00,0,Wunderground v.1.15,2013-08-21 01:44:00,
2013-08-20 20:49:00,77.2,67.1,29.98,SW,216,0.0,3.0,71,0.00,,,0.00,0,Wunderground v.1.15,2013-08-21 01:49:00,
2013-08-20 20:54:00,77.0,67.3,29.98,SSE,159,0.0,3.0,72,0.00,,,0.00,0,Wunderground v.1.15,2013-08-21 01:54:00,
2013-08-20 20:59:00,76.7,67.0,29.98,SSE,159,0.0,3.0,72,0.00,,,0.00,0,Wunderground v.1.15,2013-08-21 01:59:00,
2013-08-20 21:04:00,76.5,67.2,29.98,SSE,159,0.0,3.0,73,0.00,,,0.00,0,Wunderground v.1.15,2013-08-21 02:04:00,
2013-08-20 21:09:00,76.3,67.0,29.98,SSE,161,3.0,5.0,73,0.00,,,0.00,0,Wunderground v.1.15,2013-08-21 02:09:00,
2013-08-20 21:14:00,76.2,66.9,29.99,SSE,167,0.0,4.0,73,0.00,,,0.00,0,Wunderground v.1.15,2013-08-21 02:14:00,
2013-08-20 21:19:00,76.1,66.8,29.99,SSE,167,0.0,4.0,73,0.00,,,0.00,0,Wunderground v.1.15,2013-08-21 02:19:00,
2013-08-20 21:24:00,76.0,66.7,29.98,SSE,167,0.0,3.0,73,0.00,,,0.00,0,Wunderground v.1.15,2013-08-21 02:24:00,
2013-08-20 21:29:00,75.8,66.5,29.99,SW,230,0.0,3.0,73,0.00,,,0.00,0,Wunderground v.1.15,2013-08-21 02:29:00,
2013-08-20 21:34:00,75.7,66.8,29.98,SW,235,0.0,2.0,74,0.00,,,0.00,0,Wunderground v.1.15,2013-08-21 02:34:00,
2013-08-20 21:39:00,75.6,66.7,29.98,South,178,0.0,3.0,74,0.00,,,0.00,0,Wunderground v.1.15,2013-08-21 02:39:00,
2013-08-20 21:44:00,75.5,67.0,29.98,South,178,0.0,1.0,75,0.00,,,0.00,0,Wunderground v.1.15,2013-08-21 02:44:00,
2013-08-20 21:49:00,75.3,66.8,29.99,SSE,161,4.0,4.0,75,0.00,,,0.00,0,Wunderground v.1.15,2013-08-21 02:49:00,
2013-08-20 21:55:00,75.3,66.8,29.99,SSE,159,0.0,6.0,75,0.00,,,0.00,0,Wunderground v.1.15,2013-08-21 02:55:00,
2013-08-20 22:00:00,75.2,66.7,29.99,SSW,211,0.0,1.0,75,0.00,,,0.00,0,Wunderground v.1.15,2013-08-21 03:00:00,
2013-08-20 22:05:00,75.1,66.6,29.99,SSW,206,2.0,3.0,75,0.00,,,0.00,0,Wunderground v.1.15,2013-08-21 03:05:00,
2013-08-20 22:10:00,75.1,66.2,29.99,WSW,240,0.0,0.0,74,0.00,,,0.00,0,Wunderground v.1.15,2013-08-21 03:10:00,
2013-08-20 22:15:00,75.2,66.7,29.99,SSW,200,0.0,5.0,75,0.00,,,0.00,0,Wunderground v.1.15,2013-08-21 03:15:00,
2013-08-20 22:20:00,75.1,66.6,29.98,South,190,1.0,1.0,75,0.00,,,0.00,0,Wunderground v.1.15,2013-08-21 03:20:00,
2013-08-20 22:25:00,75.1,66.6,29.98,SSE,162,3.0,5.0,75,0.00,,,0.00,0,Wunderground v.1.15,2013-08-21 03:25:00,
2013-08-20 22:30:00,75.1,66.6,29.99,SW,231,1.0,1.0,75,0.00,,,0.00,0,Wunderground v.1.15,2013-08-21 03:30:00,
2013-08-20 22:35:00,74.9,66.8,29.98,West,264,0.0,4.0,76,0.00,,,0.00,0,Wunderground v.1.15,2013-08-21 03:35:00,
2013-08-20 22:40:00,74.8,66.7,29.99,SSE,154,2.0,2.0,76,0.00,,,0.00,0,Wunderground v.1.15,2013-08-21 03:40:00,
2013-08-20 22:45:00,74.7,66.6,29.99,SW,226,0.0,6.0,76,0.00,,,0.00,0,Wunderground v.1.15,2013-08-21 03:45:00,
2013-08-20 22:50:00,74.6,66.9,29.99,SSE,153,3.0,3.0,77,0.00,,,0.00,0,Wunderground v.1.15,2013-08-21 03:50:00,
2013-08-20 22:55:00,74.5,66.8,29.99,SSW,196,0.0,3.0,77,0.00,,,0.00,0,Wunderground v.1.15,2013-08-21 03:55:00,
2013-08-20 23:00:00,74.5,66.8,29.99,SW,222,0.0,1.0,77,0.00,,,0.00,0,Wunderground v.1.15,2013-08-21 04:00:00,
2013-08-20 23:01:00,74.4,66.7,29.99,SW,222,0.0,1.0,77,0.00,,,0.00,0,Wunderground v.1.15,2013-08-21 04:01:00,
2013-08-20 23:06:00,74.4,66.7,29.99,SSW,210,0.0,3.0,77,0.00,,,0.00,0,Wunderground v.1.15,2013-08-21 04:06:00,
2013-08-20 23:11:00,74.4,66.7,29.99,South,175,0.0,2.0,77,0.00,,,0.00,0,Wunderground v.1.15,2013-08-21 04:11:00,
2013-08-20 23:16:00,74.3,67.0,29.99,South,170,3.0,4.0,78,0.00,,,0.00,0,Wunderground v.1.15,2013-08-21 04:16:00,
2013-08-20 23:21:00,74.3,67.0,29.98,SSE,157,0.0,3.0,78,0.00,,,0.00,0,Wunderground v.1.15,2013-08-21 04:21:00,
2013-08-20 23:26:00,74.2,66.9,29.98,South,190,0.0,5.0,78,0.00,,,0.00,0,Wunderground v.1.15,2013-08-21 04:26:00,
2013-08-20 23:31:00,74.1,66.8,29.98,SSE,159,0.0,5.0,78,0.00,,,0.00,0,Wunderground v.1.15,2013-08-21 04:31:00,
2013-08-20 23:36:00,74.1,66.8,29.98,SSE,160,0.0,7.0,78,0.00,,,0.00,0,Wunderground v.1.15,2013-08-21 04:36:00,
2013-08-20 23:41:00,74.1,66.8,29.98,WSW,248,0.0,1.0,78,0.00,,,0.00,0,Wunderground v.1.15,2013-08-21 04:41:00,
2013-08-20 23:46:00,74.0,66.7,29.98,SSW,205,0.0,5.0,78,0.00,,,0.00,0,Wunderground v.1.15,2013-08-21 04:46:00,
2013-08-20 23:51:00,74.0,66.7,29.99,WSW,257,0.0,2.0,78,0.00,,,0.00,0,Wunderground v.1.15,2013-08-21 04:51:00,
2013-08-20 23:56:00,74.0,66.7,29.99,South,179,0.0,5.0,78,0.00,,,0.00,0,Wunderground v.1.15,2013-08-21 04:56:00,